Ludlam, Florida
Current Conditions -  °F | °C
As of 6:53 AM on Monday 22 Dec 2014 (Local Time) from KMIA Reporting Station
Broken Clouds Broken Clouds  
Wind Chill: 68°   Ceiling: 25000
Heat Index: 68°   Visibility: 10mi
Dew Point: 65°   Wind: 6mph
Humidity: 90%   Direction: 120°ESE
Pressure: 30.02"   Gusts: NA
Location:  25.7539°N, 80.2512°W
Report Text: KMIA 221153Z 12005KT 10SM FEW022 FEW140 BKN250 20/18 A3002 RMK AO2 SLP164 T02000183 10228 20189 57002 $
Loading
Personal Weather Stations






























Interactive Weather Map New forecast layout! Learn more

10-Day Weather Forecast

Advertisements
Track Severe Weather on mobile